Terminal Aerodrome Forecast
Issued by NWS St Louis, MO

Home | Current Version | Previous Version | Text Only | Print | Product List | Glossary On
Versions: 1 2 3 4 5 6 7 8 9 10 11 12 13 14
000
FTUS43 KLSX 011725
TAFCOU
TAF
KCOU 011725Z 0118/0218 21009KT P6SM SCT050
     FM020100 17004KT P6SM SKC
     FM021700 19008KT P6SM SCT060=

USA.gov is the U.S. government's official web portal to all federal, state and local government web resources and services.